Time;durP1;ratioP1;P1;durP2;ratioP2;P2;SDS_P1;SDS_P2;PMS_P1;PMS_P2;Temp;Humidity;BMP_temperature;BMP_pressure;BME280_temperature;BME280_humidity;BME280_pressure;Samples;Min_cycle;Max_cycle;Signal;HPM_P1;HPM_P2
2021/05/20 00:02:17;;;;;;;5.90;5.60;;;10.00;99.90;;;;;;5054640;28;20203;-78
2021/05/20 00:04:45;;;;;;;6.33;5.83;;;10.00;99.90;;;;;;5057276;28;20200;-78
2021/05/20 00:07:11;;;;;;;6.00;5.70;;;10.00;99.90;;;;;;5054313;28;20195;-78
2021/05/20 00:09:37;;;;;;;5.87;5.53;;;9.90;99.90;;;;;;5037969;28;20206;-78
2021/05/20 00:12:05;;;;;;;5.80;5.50;;;9.90;99.90;;;;;;5053239;28;20334;-78
2021/05/20 00:14:31;;;;;;;6.33;5.90;;;9.90;99.90;;;;;;5037470;28;20206;-79
2021/05/20 00:16:57;;;;;;;6.27;5.77;;;9.90;99.90;;;;;;5056867;28;20192;-78
2021/05/20 00:19:24;;;;;;;6.30;5.80;;;9.90;99.90;;;;;;5027420;28;20215;-78
2021/05/20 00:21:51;;;;;;;6.03;5.63;;;9.80;99.90;;;;;;5036888;28;20223;-78
2021/05/20 00:24:18;;;;;;;5.93;5.53;;;9.80;99.90;;;;;;5054017;28;20203;-78
2021/05/20 00:26:44;;;;;;;5.90;5.50;;;9.80;99.90;;;;;;5038516;28;20694;-78
2021/05/20 00:29:11;;;;;;;6.07;5.50;;;9.80;99.90;;;;;;5037473;28;20203;-78
2021/05/20 00:31:37;;;;;;;6.33;5.93;;;9.80;99.90;;;;;;5055570;28;20230;-78
2021/05/20 00:34:05;;;;;;;6.20;5.70;;;9.80;99.90;;;;;;5054451;28;20575;-78
2021/05/20 00:36:31;;;;;;;6.03;5.63;;;9.80;99.90;;;;;;5054159;28;20203;-78
2021/05/20 00:38:58;;;;;;;6.20;5.80;;;9.80;99.90;;;;;;5054415;28;20717;-78
2021/05/20 00:41:25;;;;;;;5.80;5.50;;;9.80;99.90;;;;;;5054803;28;20229;-78
2021/05/20 00:43:51;;;;;;;6.10;5.70;;;9.70;99.90;;;;;;5059552;28;20203;-78
2021/05/20 00:46:18;;;;;;;6.10;5.70;;;9.70;99.90;;;;;;5055405;28;20203;-77
2021/05/20 00:48:44;;;;;;;5.83;5.53;;;9.70;99.90;;;;;;5056051;28;20187;-78
2021/05/20 00:51:11;;;;;;;6.00;5.60;;;9.60;99.90;;;;;;5038774;28;20227;-78
2021/05/20 00:53:37;;;;;;;5.97;5.57;;;9.50;99.90;;;;;;5057838;28;20195;-79
2021/05/20 00:56:06;;;;;;;6.40;6.00;;;9.50;99.90;;;;;;5056427;28;20195;-79
2021/05/20 00:58:33;;;;;;;6.87;6.40;;;9.30;99.90;;;;;;5052231;28;20208;-77
2021/05/20 01:00:59;;;;;;;6.50;5.90;;;9.30;99.90;;;;;;5041496;28;20410;-78
2021/05/20 01:03:25;;;;;;;6.23;5.73;;;9.20;99.90;;;;;;5059672;28;20203;-78
2021/05/20 01:05:54;;;;;;;6.40;6.00;;;9.20;99.90;;;;;;5041199;28;20225;-77
2021/05/20 01:08:20;;;;;;;6.00;5.70;;;9.00;99.90;;;;;;5055113;28;20214;-78
2021/05/20 01:10:47;;;;;;;6.00;5.60;;;8.90;99.90;;;;;;5042167;28;20250;-78
2021/05/20 01:13:15;;;;;;;6.40;6.00;;;8.90;99.90;;;;;;5056996;28;20232;-78
2021/05/20 01:15:42;;;;;;;6.43;6.03;;;8.90;99.90;;;;;;5056480;28;20190;-78
2021/05/20 01:18:08;;;;;;;6.37;5.93;;;8.90;99.90;;;;;;5058161;28;20601;-78
2021/05/20 01:20:37;;;;;;;6.30;5.90;;;8.90;99.90;;;;;;5037260;28;20227;-77
2021/05/20 01:23:05;;;;;;;6.60;6.10;;;8.80;99.90;;;;;;5035696;28;20194;-78
2021/05/20 01:25:32;;;;;;;6.10;5.80;;;8.90;99.90;;;;;;5056119;28;20202;-78
2021/05/20 01:28:02;;;;;;;6.50;6.00;;;8.90;99.90;;;;;;5038144;28;20210;-78
2021/05/20 01:30:29;;;;;;;6.07;5.73;;;8.90;99.90;;;;;;5054135;28;20653;-78
2021/05/20 01:32:56;;;;;;;6.30;5.90;;;9.00;99.90;;;;;;5047373;28;20218;-78
2021/05/20 01:35:23;;;;;;;6.27;5.87;;;9.10;99.90;;;;;;5043638;28;20203;-78
2021/05/20 01:37:50;;;;;;;6.27;5.97;;;9.10;99.90;;;;;;5047044;28;20211;-78
2021/05/20 01:40:17;;;;;;;6.30;5.87;;;9.10;99.90;;;;;;5047210;28;20225;-78
2021/05/20 01:42:43;;;;;;;6.37;5.97;;;9.10;99.90;;;;;;5046901;28;20209;-77
2021/05/20 01:45:10;;;;;;;6.57;6.03;;;9.20;99.90;;;;;;5047074;28;20283;-77
2021/05/20 01:47:37;;;;;;;5.80;5.50;;;9.10;99.90;;;;;;5047778;28;20198;-78
2021/05/20 01:50:04;;;;;;;6.07;5.73;;;9.20;99.90;;;;;;5034921;28;20231;-78
2021/05/20 01:52:31;;;;;;;6.17;5.77;;;9.20;99.90;;;;;;5046077;28;20203;-78
2021/05/20 01:54:58;;;;;;;6.20;5.80;;;9.20;99.90;;;;;;5045718;28;20200;-78
2021/05/20 01:57:24;;;;;;;6.37;5.97;;;9.10;99.90;;;;;;5045821;28;20200;-78
2021/05/20 01:59:51;;;;;;;6.10;5.80;;;9.10;99.90;;;;;;5046257;28;20230;-78
2021/05/20 02:02:17;;;;;;;6.20;5.80;;;9.10;99.90;;;;;;5036789;28;20195;-77
2021/05/20 02:04:43;;;;;;;6.40;6.00;;;9.00;99.90;;;;;;5045876;28;20197;-78
2021/05/20 02:07:10;;;;;;;6.20;5.90;;;9.00;99.90;;;;;;5046437;28;20260;-78
2021/05/20 02:09:36;;;;;;;6.40;6.00;;;8.90;99.90;;;;;;5046674;28;20206;-78
2021/05/20 02:12:05;;;;;;;6.20;5.90;;;8.90;99.90;;;;;;5032267;28;20234;-78
2021/05/20 02:14:31;;;;;;;6.07;5.70;;;8.90;99.90;;;;;;5036341;28;20202;-77
2021/05/20 02:16:58;;;;;;;6.30;5.70;;;8.80;99.90;;;;;;5035915;28;20202;-78
2021/05/20 02:19:25;;;;;;;6.30;5.90;;;8.80;99.90;;;;;;5046432;28;20213;-77
2021/05/20 02:21:51;;;;;;;6.37;5.97;;;8.80;99.90;;;;;;5036165;28;20231;-78
2021/05/20 02:24:18;;;;;;;6.87;6.47;;;8.80;99.90;;;;;;5044804;28;20222;-77
2021/05/20 02:26:44;;;;;;;7.03;6.53;;;8.70;99.90;;;;;;5032757;28;20776;-78
2021/05/20 02:29:11;;;;;;;6.40;6.00;;;8.70;99.90;;;;;;5029327;28;20194;-78
2021/05/20 02:31:37;;;;;;;6.60;6.10;;;8.70;99.90;;;;;;5034739;28;20223;-78
2021/05/20 02:34:04;;;;;;;6.30;5.90;;;8.70;99.90;;;;;;5026260;28;20210;-78
2021/05/20 02:36:30;;;;;;;6.10;5.80;;;8.70;99.90;;;;;;5039894;28;20205;-78
2021/05/20 02:38:56;;;;;;;6.50;6.10;;;8.70;99.90;;;;;;5039580;28;20222;-77
2021/05/20 02:41:23;;;;;;;7.13;6.63;;;8.70;99.90;;;;;;5037558;28;20533;-78
2021/05/20 02:43:49;;;;;;;6.90;6.50;;;8.60;99.90;;;;;;5026334;28;20209;-75
2021/05/20 02:46:16;;;;;;;7.13;6.73;;;8.60;99.90;;;;;;5037254;28;20221;-76
2021/05/20 02:48:42;;;;;;;6.80;6.30;;;8.60;99.90;;;;;;5016709;28;20207;-77
2021/05/20 02:51:09;;;;;;;6.57;6.17;;;8.60;99.90;;;;;;5017105;28;20223;-76
2021/05/20 02:53:35;;;;;;;6.53;6.17;;;8.60;99.90;;;;;;5030019;28;20199;-75
2021/05/20 02:56:01;;;;;;;7.63;6.40;;;8.60;99.90;;;;;;5031757;28;20203;-75
2021/05/20 02:58:28;;;;;;;6.43;6.03;;;8.70;99.90;;;;;;5024442;28;20605;-75
2021/05/20 03:00:54;;;;;;;7.13;6.63;;;8.70;99.90;;;;;;5022706;28;20265;-73
2021/05/20 03:03:21;;;;;;;6.93;6.40;;;8.70;99.90;;;;;;5025534;28;20279;-74
2021/05/20 03:05:48;;;;;;;7.00;6.60;;;8.70;99.90;;;;;;5017056;28;20213;-74
2021/05/20 03:08:15;;;;;;;7.30;6.90;;;8.70;99.90;;;;;;5008941;28;20197;-77
2021/05/20 03:10:42;;;;;;;6.70;6.30;;;8.70;99.90;;;;;;5020430;28;20230;-77
2021/05/20 03:13:08;;;;;;;7.20;6.80;;;8.70;99.90;;;;;;5023653;28;20212;-78
2021/05/20 03:15:35;;;;;;;8.20;7.70;;;8.70;99.90;;;;;;5032175;28;20199;-76
2021/05/20 03:18:01;;;;;;;7.23;6.80;;;8.60;99.90;;;;;;5009173;28;20215;-76
2021/05/20 03:20:28;;;;;;;7.03;6.63;;;8.60;99.90;;;;;;5027972;28;20223;-77
2021/05/20 03:22:54;;;;;;;7.53;7.03;;;8.60;99.90;;;;;;5016975;28;20679;-76
2021/05/20 03:25:21;;;;;;;6.70;6.33;;;8.60;99.90;;;;;;5030345;28;20211;-76
2021/05/20 03:27:47;;;;;;;7.30;6.80;;;8.60;99.90;;;;;;5031753;28;20209;-77
2021/05/20 03:30:14;;;;;;;7.70;7.20;;;8.60;99.90;;;;;;5022955;28;20232;-77
2021/05/20 03:32:41;;;;;;;6.97;6.50;;;8.60;99.90;;;;;;5031569;28;20203;-78
2021/05/20 03:35:08;;;;;;;7.77;7.27;;;8.60;99.90;;;;;;5031620;28;20672;-77
2021/05/20 03:37:37;;;;;;;7.10;6.70;;;8.60;99.90;;;;;;5021445;28;20197;-77
2021/05/20 03:40:05;;;;;;;7.60;7.20;;;8.70;99.90;;;;;;5023246;28;20289;-76
2021/05/20 03:42:31;;;;;;;7.97;7.50;;;8.70;99.90;;;;;;5021845;28;20213;-76
2021/05/20 03:44:58;;;;;;;7.90;7.40;;;8.80;99.90;;;;;;5018631;28;20210;-77
2021/05/20 03:47:24;;;;;;;7.77;7.27;;;8.80;99.90;;;;;;5025520;28;20207;-78
2021/05/20 03:49:50;;;;;;;7.47;7.00;;;8.90;99.90;;;;;;5020967;28;20196;-77
2021/05/20 03:52:16;;;;;;;7.97;7.53;;;8.90;99.90;;;;;;5031351;28;20195;-78
2021/05/20 03:54:43;;;;;;;7.30;6.80;;;8.90;99.90;;;;;;5021532;28;20206;-77
2021/05/20 03:57:11;;;;;;;7.50;7.00;;;8.90;99.90;;;;;;5012057;28;20583;-77
2021/05/20 03:59:37;;;;;;;8.00;7.30;;;8.90;99.90;;;;;;5022058;28;20218;-78
2021/05/20 04:02:04;;;;;;;8.47;7.77;;;8.90;99.90;;;;;;5021232;28;20214;-76
2021/05/20 04:04:31;;;;;;;7.57;7.10;;;8.90;99.90;;;;;;5015494;28;20211;-79
2021/05/20 04:06:57;;;;;;;7.87;7.27;;;8.90;99.90;;;;;;5031723;28;20210;-78
2021/05/20 04:09:23;;;;;;;7.73;7.13;;;8.90;99.90;;;;;;5020458;28;20199;-78
2021/05/20 04:11:50;;;;;;;8.07;7.57;;;8.90;99.90;;;;;;5024333;28;20297;-77
2021/05/20 04:14:17;;;;;;;8.60;7.90;;;8.90;99.90;;;;;;5032969;28;20200;-77
2021/05/20 04:16:43;;;;;;;8.23;7.73;;;8.90;99.90;;;;;;5014470;28;20664;-77
2021/05/20 04:19:09;;;;;;;8.50;7.80;;;8.90;99.90;;;;;;5019508;28;20223;-77
2021/05/20 04:21:36;;;;;;;8.23;7.73;;;8.90;99.90;;;;;;5025771;28;20231;-78
2021/05/20 04:24:03;;;;;;;7.70;7.30;;;9.00;99.90;;;;;;5025051;28;20671;-77
2021/05/20 04:26:30;;;;;;;8.57;7.97;;;9.00;99.90;;;;;;5018634;28;20629;-78
2021/05/20 04:28:57;;;;;;;8.30;7.70;;;9.00;99.90;;;;;;5035536;28;20245;-81
2021/05/20 04:31:23;;;;;;;8.40;7.90;;;9.10;99.90;;;;;;5036655;28;20285;-84
2021/05/20 04:33:50;;;;;;;8.23;7.70;;;9.10;99.90;;;;;;5015496;28;20210;-81
2021/05/20 04:36:16;;;;;;;8.67;8.00;;;9.20;99.90;;;;;;5009024;28;20250;-80
2021/05/20 04:38:43;;;;;;;8.07;7.67;;;9.20;99.90;;;;;;5029137;28;20230;-78
2021/05/20 04:41:09;;;;;;;9.03;8.47;;;9.20;99.90;;;;;;5032283;28;20230;-77
2021/05/20 04:43:36;;;;;;;10.07;9.40;;;9.30;99.90;;;;;;5034371;28;20204;-76
2021/05/20 04:46:03;;;;;;;8.70;8.10;;;9.30;99.90;;;;;;5034855;28;20202;-76
2021/05/20 04:48:29;;;;;;;8.60;8.00;;;9.40;99.90;;;;;;5034617;28;20210;-75
2021/05/20 04:50:56;;;;;;;8.33;7.83;;;9.50;99.90;;;;;;5034363;28;20220;-76
2021/05/20 04:53:23;;;;;;;8.03;7.53;;;9.60;99.90;;;;;;5024751;28;20224;-75
2021/05/20 04:55:51;;;;;;;4.00;3.70;;;9.70;99.90;;;;;;5024734;28;20287;-75
2021/05/20 04:58:17;;;;;;;4.40;4.10;;;9.90;99.90;;;;;;5026285;28;20226;-75
2021/05/20 05:00:44;;;;;;;4.10;3.80;;;10.20;99.90;;;;;;5034493;28;20226;-75
2021/05/20 05:03:11;;;;;;;3.57;3.37;;;10.20;99.90;;;;;;5024359;28;20672;-77
2021/05/20 05:05:37;;;;;;;3.20;3.00;;;10.30;99.90;;;;;;5024142;28;20734;-76
2021/05/20 05:08:04;;;;;;;2.70;2.50;;;10.30;99.90;;;;;;5025415;28;20192;-75
2021/05/20 05:10:30;;;;;;;2.67;2.50;;;10.30;99.90;;;;;;5029278;28;20231;-79
2021/05/20 05:12:56;;;;;;;6.97;6.57;;;10.40;99.90;;;;;;5028709;28;20196;-79
2021/05/20 05:15:23;;;;;;;5.50;5.20;;;10.60;99.90;;;;;;5027568;28;20700;-77
2021/05/20 05:17:49;;;;;;;5.13;4.73;;;10.60;99.90;;;;;;5010700;28;20192;-77
2021/05/20 05:20:18;;;;;;;5.77;5.47;;;10.70;99.90;;;;;;5011029;28;20598;-76
2021/05/20 05:22:44;;;;;;;7.07;6.67;;;10.80;99.90;;;;;;5025471;28;20664;-77
2021/05/20 05:25:11;;;;;;;7.40;7.00;;;10.90;99.90;;;;;;5009780;28;20200;-76
2021/05/20 05:27:37;;;;;;;7.47;7.07;;;11.10;99.90;;;;;;5026641;28;20688;-76
2021/05/20 05:30:05;;;;;;;6.83;6.43;;;11.30;99.90;;;;;;5010409;28;20732;-77
2021/05/20 05:32:31;;;;;;;3.17;2.97;;;11.60;99.90;;;;;;5009548;28;20215;-76
2021/05/20 05:34:58;;;;;;;2.43;2.33;;;11.70;99.90;;;;;;5026232;28;20618;-77
2021/05/20 05:37:25;;;;;;;6.77;6.37;;;11.90;99.90;;;;;;5026826;28;20208;-76
2021/05/20 05:39:53;;;;;;;6.77;6.37;;;11.90;99.90;;;;;;5009227;28;20233;-76
2021/05/20 05:42:20;;;;;;;4.53;4.23;;;11.90;99.90;;;;;;5007309;28;20229;-78
2021/05/20 05:44:46;;;;;;;6.20;5.90;;;11.90;99.90;;;;;;5008699;28;20258;-77
2021/05/20 05:47:13;;;;;;;5.93;5.50;;;12.00;99.90;;;;;;5009496;28;20208;-77
2021/05/20 05:49:42;;;;;;;4.47;4.17;;;12.20;99.90;;;;;;5010320;28;20228;-77
2021/05/20 05:52:09;;;;;;;3.00;2.80;;;12.30;99.90;;;;;;5026561;28;20202;-77
2021/05/20 05:54:37;;;;;;;6.63;6.23;;;12.40;99.90;;;;;;5025663;28;20732;-77
2021/05/20 05:57:04;;;;;;;2.63;2.47;;;12.50;99.90;;;;;;5026584;28;20198;-77
2021/05/20 05:59:31;;;;;;;3.00;2.80;;;12.60;99.90;;;;;;5027105;28;20218;-76
2021/05/20 06:01:59;;;;;;;2.93;2.80;;;12.50;99.90;;;;;;5009010;28;20223;-76
2021/05/20 06:04:26;;;;;;;2.90;2.80;;;12.40;99.90;;;;;;5026577;28;20198;-76
2021/05/20 06:06:53;;;;;;;2.53;2.43;;;12.40;99.90;;;;;;5009420;28;20209;-77
2021/05/20 06:09:19;;;;;;;2.60;2.40;;;12.50;99.90;;;;;;5011014;28;20307;-77
2021/05/20 06:11:47;;;;;;;3.57;2.93;;;12.50;99.90;;;;;;5027213;28;20268;-77
2021/05/20 06:14:14;;;;;;;3.43;3.13;;;12.50;99.90;;;;;;5010281;28;20206;-77
2021/05/20 06:16:41;;;;;;;2.93;2.80;;;12.60;99.90;;;;;;5024680;28;20221;-77
2021/05/20 06:19:08;;;;;;;3.03;2.60;;;12.60;99.90;;;;;;5009092;28;20293;-77
2021/05/20 06:21:35;;;;;;;2.90;2.70;;;12.60;99.90;;;;;;5027049;28;20226;-77
2021/05/20 06:24:02;;;;;;;2.60;2.40;;;12.60;99.90;;;;;;5027180;28;20233;-76
2021/05/20 06:26:29;;;;;;;2.70;2.60;;;12.60;99.90;;;;;;5008243;28;20195;-76
2021/05/20 06:28:57;;;;;;;3.63;2.87;;;12.90;99.90;;;;;;5007790;28;20210;-77
2021/05/20 06:31:23;;;;;;;1.97;1.87;;;13.10;99.90;;;;;;5025701;28;20605;-76
2021/05/20 06:33:50;;;;;;;1.63;1.63;;;13.30;99.90;;;;;;5008608;28;20204;-78
2021/05/20 06:36:16;;;;;;;2.00;1.90;;;13.60;99.90;;;;;;5025658;28;20191;-77
2021/05/20 06:38:44;;;;;;;1.67;1.67;;;13.60;99.90;;;;;;5025926;28;20738;-77
2021/05/20 06:41:10;;;;;;;3.10;2.90;;;13.70;99.90;;;;;;5025747;28;20223;-77
2021/05/20 06:43:38;;;;;;;2.83;2.73;;;13.80;99.90;;;;;;5026557;28;20199;-77
2021/05/20 06:46:06;;;;;;;2.73;2.63;;;13.70;99.90;;;;;;5032154;28;20196;-77
2021/05/20 06:48:32;;;;;;;2.90;2.80;;;14.00;99.90;;;;;;5031999;28;20249;-77
2021/05/20 06:50:59;;;;;;;4.50;4.30;;;14.00;99.90;;;;;;5025580;28;20242;-77
2021/05/20 06:53:26;;;;;;;6.57;6.27;;;14.20;99.90;;;;;;5028675;28;20887;-77
2021/05/20 06:55:56;;;;;;;2.40;2.30;;;14.30;99.90;;;;;;5027853;28;20583;-77
2021/05/20 07:01:08;;;;;;;6.30;6.00;;;14.10;99.90;;;;;;5032246;28;20215;-77
2021/05/20 07:03:34;;;;;;;6.40;6.10;;;14.30;99.90;;;;;;5031856;28;20258;-78
2021/05/20 07:06:01;;;;;;;6.10;5.80;;;14.30;99.90;;;;;;5030446;28;20199;-77
2021/05/20 07:08:27;;;;;;;5.73;5.47;;;14.20;99.90;;;;;;5016887;28;20204;-79
2021/05/20 07:10:54;;;;;;;5.80;5.50;;;14.20;99.90;;;;;;5014209;28;20223;-79
2021/05/20 07:13:21;;;;;;;6.30;6.00;;;14.20;99.90;;;;;;5028328;28;20553;-78
2021/05/20 07:15:47;;;;;;;6.97;6.63;;;14.30;99.90;;;;;;5031930;28;20200;-78
2021/05/20 07:18:15;;;;;;;6.53;6.23;;;14.20;99.90;;;;;;5024702;28;20203;-77
2021/05/20 07:20:41;;;;;;;6.57;6.20;;;14.00;99.90;;;;;;5031858;28;20257;-77
2021/05/20 07:23:12;;;;;;;6.50;6.20;;;14.00;99.90;;;;;;5019559;28;20261;-77
2021/05/20 07:25:38;;;;;;;4.80;4.53;;;14.00;99.90;;;;;;5018801;28;20203;-77
2021/05/20 07:28:05;;;;;;;2.80;2.70;;;14.10;99.90;;;;;;5020899;28;20580;-76
2021/05/20 07:30:32;;;;;;;5.03;4.83;;;14.20;99.90;;;;;;5023738;28;20218;-76
2021/05/20 07:32:58;;;;;;;4.87;4.57;;;14.20;99.90;;;;;;5040892;28;20199;-76
2021/05/20 07:35:26;;;;;;;6.40;6.10;;;14.20;99.90;;;;;;5030528;28;20206;-77
2021/05/20 07:37:52;;;;;;;6.30;6.00;;;14.30;99.90;;;;;;5024805;28;20203;-77
2021/05/20 07:40:19;;;;;;;6.83;6.43;;;14.50;99.90;;;;;;5024639;28;20227;-77
2021/05/20 07:42:47;;;;;;;5.20;5.00;;;14.80;99.90;;;;;;5042159;28;20196;-77
2021/05/20 07:45:14;;;;;;;6.67;6.20;;;15.20;99.90;;;;;;5021609;28;20197;-77
2021/05/20 07:47:41;;;;;;;5.50;5.20;;;15.50;99.90;;;;;;5025520;28;20205;-77
2021/05/20 07:50:09;;;;;;;6.53;6.13;;;15.40;99.90;;;;;;5040738;28;20242;-76
2021/05/20 07:52:36;;;;;;;4.00;3.80;;;15.90;99.90;;;;;;5028273;28;20211;-77
2021/05/20 07:55:03;;;;;;;3.70;3.50;;;16.20;99.90;;;;;;5028181;28;20261;-77
2021/05/20 07:57:29;;;;;;;3.80;3.60;;;16.40;99.90;;;;;;5047665;28;20203;-77
2021/05/20 07:59:56;;;;;;;3.60;3.30;;;16.30;99.90;;;;;;5047105;28;20216;-77
2021/05/20 08:02:32;;;;;;;6.07;5.70;;;16.20;99.90;;;;;;5047234;28;20222;-77
2021/05/20 08:05:02;;;;;;;6.80;6.37;;;15.90;99.90;;;;;;5029817;28;20211;-77
2021/05/20 08:07:34;;;;;;;6.20;5.90;;;16.00;99.90;;;;;;5039077;28;20545;-77
2021/05/20 08:10:10;;;;;;;5.37;3.70;;;16.60;99.90;;;;;;5029393;28;20217;-80
2021/05/20 08:12:36;;;;;;;4.30;4.10;;;17.20;99.90;;;;;;5024361;28;20216;-76
2021/05/20 08:15:04;;;;;;;4.37;4.17;;;17.70;99.90;;;;;;5039363;28;20274;-77
2021/05/20 08:17:30;;;;;;;5.10;4.90;;;18.10;99.90;;;;;;5031652;28;20211;-77
2021/05/20 08:19:57;;;;;;;6.10;5.77;;;18.40;99.90;;;;;;5042382;28;20250;-77
2021/05/20 08:22:23;;;;;;;6.50;6.10;;;18.20;99.90;;;;;;5045322;28;20314;-76
2021/05/20 08:24:49;;;;;;;6.97;6.57;;;18.10;99.90;;;;;;5025206;28;20203;-76
2021/05/20 08:27:16;;;;;;;7.07;6.67;;;17.30;99.90;;;;;;5019879;28;20669;-76
2021/05/20 08:29:43;;;;;;;6.70;6.30;;;16.80;99.90;;;;;;5021713;28;20203;-76
2021/05/20 08:32:09;;;;;;;6.40;6.00;;;16.30;99.90;;;;;;5019073;28;20238;-77
2021/05/20 08:34:35;;;;;;;7.03;6.40;;;15.90;99.90;;;;;;5018170;28;20206;-76
2021/05/20 08:37:02;;;;;;;6.10;5.80;;;15.60;99.90;;;;;;5033561;28;20198;-76
2021/05/20 08:39:28;;;;;;;5.80;5.50;;;15.40;99.90;;;;;;5043023;28;20274;-76
2021/05/20 08:41:55;;;;;;;6.07;5.77;;;15.20;99.90;;;;;;5051269;22;20571;-77
2021/05/20 08:44:25;;;;;;;6.20;5.70;;;15.30;99.90;;;;;;5053670;28;20205;-77
2021/05/20 08:46:55;;;;;;;6.20;5.70;;;15.40;99.90;;;;;;5055541;28;20207;-77
2021/05/20 08:49:21;;;;;;;6.20;5.90;;;15.60;99.90;;;;;;5070410;28;20687;-77
2021/05/20 08:51:48;;;;;;;6.13;5.83;;;15.80;99.90;;;;;;5073358;28;20634;-77
2021/05/20 08:54:15;;;;;;;6.30;6.00;;;15.90;99.90;;;;;;5067778;28;20264;-77
2021/05/20 08:56:43;;;;;;;8.63;6.20;;;16.20;99.90;;;;;;5051641;28;20253;-77
2021/05/20 08:59:10;;;;;;;6.47;6.17;;;16.70;99.90;;;;;;5072616;28;20200;-77
2021/05/20 09:01:39;;;;;;;6.30;6.00;;;17.20;99.90;;;;;;5062378;28;20267;-77
2021/05/20 09:04:06;;;;;;;6.37;6.07;;;17.40;99.90;;;;;;5066548;28;20685;-77
2021/05/20 09:06:37;;;;;;;6.20;5.80;;;17.30;99.90;;;;;;5026093;28;20659;-77
2021/05/20 09:09:05;;;;;;;6.33;5.93;;;17.10;99.90;;;;;;5047833;28;20198;-77
2021/05/20 09:11:32;;;;;;;6.50;6.00;;;16.90;99.90;;;;;;5027382;28;20206;-78
2021/05/20 09:14:03;;;;;;;5.70;5.40;;;16.60;99.90;;;;;;5030844;28;20282;-77
2021/05/20 09:16:29;;;;;;;6.00;5.60;;;16.30;99.90;;;;;;5048664;28;20204;-77
2021/05/20 09:18:59;;;;;;;5.80;5.30;;;16.00;99.90;;;;;;5068241;28;20584;-77
2021/05/20 09:21:26;;;;;;;5.70;5.40;;;15.80;99.90;;;;;;5049044;28;20193;-77
2021/05/20 09:23:52;;;;;;;5.53;5.23;;;15.60;99.90;;;;;;5031758;28;20199;-77
2021/05/20 09:26:20;;;;;;;5.57;5.20;;;15.50;99.90;;;;;;5030006;28;20302;-76
2021/05/20 09:28:48;;;;;;;5.20;4.93;;;15.50;99.90;;;;;;5038038;28;20667;-75
2021/05/20 09:31:16;;;;;;;4.87;4.67;;;15.60;99.90;;;;;;5051206;28;20228;-76
2021/05/20 09:33:51;;;;;;;5.00;4.70;;;15.80;99.90;;;;;;5030440;28;20647;-78
2021/05/20 09:36:21;;;;;;;4.93;4.63;;;16.00;99.90;;;;;;5038546;28;20192;-76
2021/05/20 09:38:47;;;;;;;4.80;4.60;;;16.30;99.90;;;;;;5072045;28;20213;-77
2021/05/20 09:41:18;;;;;;;5.20;5.00;;;16.50;99.90;;;;;;5036482;28;20200;-78
2021/05/20 09:43:46;;;;;;;5.40;5.10;;;16.70;99.90;;;;;;5052791;28;20232;-78
2021/05/20 09:46:14;;;;;;;3.47;3.17;;;17.30;99.90;;;;;;5035060;28;20260;-76
2021/05/20 09:48:42;;;;;;;5.40;5.10;;;18.10;99.90;;;;;;5055335;28;20189;-77
2021/05/20 09:51:22;;;;;;;4.43;4.13;;;18.40;99.90;;;;;;5034590;28;20201;-78
2021/05/20 09:53:51;;;;;;;5.10;4.83;;;18.30;99.90;;;;;;5034942;28;20230;-77
2021/05/20 09:56:31;;;;;;;6.10;5.80;;;18.40;99.90;;;;;;5056241;28;20227;-77
2021/05/20 09:58:58;;;;;;;2.87;2.77;;;19.20;99.90;;;;;;5051346;28;20578;-78
2021/05/20 10:01:24;;;;;;;3.60;3.50;;;19.80;99.90;;;;;;5045199;28;20233;-78
2021/05/20 10:03:53;;;;;;;3.80;3.50;;;19.90;99.90;;;;;;5047654;28;20220;-78
2021/05/20 10:06:36;;;;;;;6.33;6.03;;;19.60;99.90;;;;;;5031995;28;20202;-77
2021/05/20 10:09:03;;;;;;;7.97;7.47;;;19.10;99.90;;;;;;5033779;28;20242;-78
2021/05/20 10:11:30;;;;;;;6.80;6.40;;;18.50;99.90;;;;;;5057229;28;20208;-78
2021/05/20 10:13:58;;;;;;;6.20;5.90;;;18.00;99.90;;;;;;5049724;28;20206;-77
2021/05/20 10:16:26;;;;;;;6.00;5.70;;;17.60;99.90;;;;;;5051417;28;20254;-78
2021/05/20 10:18:54;;;;;;;6.13;5.80;;;17.50;99.90;;;;;;5050434;28;20215;-77
2021/05/20 10:21:21;;;;;;;6.30;6.00;;;18.20;99.90;;;;;;5048634;28;20206;-77
2021/05/20 10:23:49;;;;;;;6.20;5.90;;;18.90;99.90;;;;;;5031321;28;20227;-78
2021/05/20 10:26:16;;;;;;;6.53;6.10;;;19.40;99.90;;;;;;5034945;28;20207;-76
2021/05/20 10:28:43;;;;;;;6.30;5.90;;;19.90;99.90;;;;;;5039780;28;20202;-77
2021/05/20 10:31:10;;;;;;;6.27;5.97;;;19.90;99.90;;;;;;5057703;28;20300;-77
2021/05/20 10:33:37;;;;;;;6.30;6.00;;;20.00;99.90;;;;;;5060259;28;20280;-77
2021/05/20 10:36:04;;;;;;;6.30;6.00;;;20.00;99.90;;;;;;5040886;28;20544;-78
2021/05/20 10:38:37;;;;;;;6.30;6.00;;;19.80;99.90;;;;;;5027677;28;20301;-76
2021/05/20 10:41:09;;;;;;;6.50;6.10;;;20.00;99.90;;;;;;5034474;28;20195;-77
2021/05/20 10:43:35;;;;;;;6.53;6.23;;;20.20;99.90;;;;;;5036257;28;20229;-77
2021/05/20 10:46:04;;;;;;;6.50;6.20;;;20.10;99.90;;;;;;5035589;28;20198;-77
2021/05/20 10:48:31;;;;;;;6.13;5.83;;;20.00;99.90;;;;;;5029837;28;20298;-76
2021/05/20 10:51:11;;;;;;;6.20;5.90;;;19.90;99.90;;;;;;5056327;28;20207;-76
2021/05/20 10:53:45;;;;;;;6.30;6.00;;;19.60;99.90;;;;;;5048792;28;20215;-76
2021/05/20 10:56:51;;;;;;;6.20;5.90;;;19.50;99.90;;;;;;5048963;28;20226;-76
2021/05/20 10:59:44;;;;;;;6.20;5.90;;;19.30;99.90;;;;;;5046668;28;20224;-77
2021/05/20 11:02:38;;;;;;;5.90;5.60;;;19.20;99.90;;;;;;5055674;28;20233;-77
2021/05/20 11:05:21;;;;;;;5.90;5.60;;;19.10;99.90;;;;;;5062449;28;20209;-78
2021/05/20 11:07:47;;;;;;;5.97;5.67;;;19.10;99.90;;;;;;5027153;28;20209;-78
2021/05/20 11:10:14;;;;;;;5.80;5.40;;;19.00;99.90;;;;;;5048186;28;20202;-78
2021/05/20 11:12:56;;;;;;;5.50;5.20;;;18.80;99.90;;;;;;5057822;28;20628;-76
2021/05/20 11:15:24;;;;;;;5.70;5.40;;;18.50;99.90;;;;;;5030891;28;20203;-76
2021/05/20 11:17:51;;;;;;;5.80;5.47;;;18.50;99.90;;;;;;5078213;28;20195;-77
2021/05/20 11:20:42;;;;;;;5.87;5.57;;;18.50;99.90;;;;;;5072926;28;20218;-77
2021/05/20 11:23:32;;;;;;;5.70;5.30;;;18.20;99.90;;;;;;5064281;28;20222;-77
2021/05/20 11:26:13;;;;;;;5.40;5.13;;;18.10;99.90;;;;;;5024899;28;20280;-80
2021/05/20 11:29:09;;;;;;;5.80;5.50;;;17.90;99.90;;;;;;5042810;28;20203;-76
2021/05/20 11:31:38;;;;;;;5.60;5.30;;;17.60;99.90;;;;;;5014390;28;20331;-78
2021/05/20 11:36:59;;;;;;;5.47;5.17;;;17.60;99.90;;;;;;5022902;28;20230;-75
2021/05/20 11:39:26;;;;;;;5.70;5.40;;;17.80;99.90;;;;;;5040281;28;20216;-75
2021/05/20 11:41:53;;;;;;;5.87;5.57;;;18.00;99.90;;;;;;5039978;28;20224;-75
2021/05/20 11:44:21;;;;;;;6.07;5.77;;;17.90;99.90;;;;;;5022656;28;20217;-75
2021/05/20 11:47:02;;;;;;;5.60;5.30;;;17.90;99.90;;;;;;5023006;28;20199;-75
2021/05/20 11:49:28;;;;;;;5.90;5.60;;;17.80;99.90;;;;;;5023899;28;20203;-75
2021/05/20 11:51:57;;;;;;;5.40;5.20;;;17.80;99.90;;;;;;5025601;28;20227;-76
2021/05/20 11:54:26;;;;;;;5.60;5.30;;;18.10;99.90;;;;;;5022473;28;20211;-75
2021/05/20 11:56:54;;;;;;;5.70;5.40;;;18.10;99.90;;;;;;5024756;28;20621;-75
2021/05/20 11:59:39;;;;;;;6.37;6.00;;;18.60;99.90;;;;;;5028479;28;20612;-75
2021/05/20 12:02:08;;;;;;;5.73;5.43;;;18.90;99.90;;;;;;5041148;28;20225;-75
2021/05/20 12:04:35;;;;;;;5.60;5.30;;;19.10;99.90;;;;;;5040118;28;20196;-75
2021/05/20 12:07:02;;;;;;;5.50;5.20;;;19.20;99.90;;;;;;5040259;28;20637;-75
2021/05/20 12:09:29;;;;;;;6.10;5.80;;;19.20;99.90;;;;;;5022436;28;20231;-76
2021/05/20 12:11:55;;;;;;;5.97;5.67;;;19.00;99.90;;;;;;5039737;28;20231;-75
2021/05/20 12:14:30;;;;;;;5.80;5.50;;;18.90;99.90;;;;;;5044877;28;20732;-75
2021/05/20 12:17:10;;;;;;;6.40;6.00;;;19.00;99.90;;;;;;5040273;28;20224;-76
2021/05/20 12:19:39;;;;;;;5.90;5.60;;;19.10;99.90;;;;;;5035808;28;20249;-75
2021/05/20 12:22:08;;;;;;;5.80;5.50;;;19.20;99.90;;;;;;5038623;28;20224;-75
2021/05/20 12:24:37;;;;;;;5.97;5.47;;;19.30;99.90;;;;;;5038669;28;20206;-76
2021/05/20 12:27:11;;;;;;;6.23;5.80;;;19.40;99.90;;;;;;5022386;28;20207;-75
2021/05/20 12:29:40;;;;;;;6.50;6.00;;;19.50;99.90;;;;;;5025416;28;20214;-76
2021/05/20 12:32:22;;;;;;;6.17;5.80;;;19.40;99.90;;;;;;5036577;28;20735;-76
2021/05/20 12:34:48;;;;;;;6.20;5.90;;;19.30;99.90;;;;;;5042732;28;20245;-76
2021/05/20 12:37:15;;;;;;;6.30;6.00;;;19.30;99.90;;;;;;5025051;28;20209;-76
2021/05/20 12:39:46;;;;;;;6.10;5.80;;;19.10;99.90;;;;;;5028256;28;20682;-75
2021/05/20 12:42:15;;;;;;;5.80;5.50;;;18.90;99.90;;;;;;5020352;28;20233;-75
2021/05/20 12:44:41;;;;;;;6.30;5.90;;;18.80;99.90;;;;;;5027198;28;20200;-75
2021/05/20 12:47:16;;;;;;;6.00;5.70;;;18.70;99.90;;;;;;5026109;28;20203;-76
2021/05/20 12:49:56;;;;;;;6.10;5.80;;;18.50;99.90;;;;;;5023286;28;20228;-76
2021/05/20 12:52:22;;;;;;;5.80;5.50;;;18.70;99.90;;;;;;5047680;28;20231;-75
2021/05/20 12:54:48;;;;;;;6.13;5.73;;;19.00;99.90;;;;;;5041401;28;20200;-75
2021/05/20 12:57:15;;;;;;;6.33;5.90;;;19.20;99.90;;;;;;5043618;28;20192;-75
2021/05/20 12:59:42;;;;;;;6.37;6.00;;;19.70;99.90;;;;;;5023517;28;20225;-76
2021/05/20 13:02:11;;;;;;;5.90;5.60;;;20.10;99.90;;;;;;5024668;28;20228;-75